createdAt,value
2022-10-07T00:00:58.128Z,22.60
2022-10-07T00:03:26.884Z,30.25
2022-10-07T00:06:01.925Z,20.38
2022-10-07T00:08:29.947Z,20.52
2022-10-07T00:10:57.834Z,24.33
2022-10-07T00:13:25.843Z,16.23
2022-10-07T00:15:53.633Z,25.25
2022-10-07T00:18:22.970Z,22.83
2022-10-07T00:20:50.808Z,22.58
2022-10-07T00:23:18.734Z,18.88
2022-10-07T00:25:46.545Z,21.13
2022-10-07T00:28:14.369Z,25.50
2022-10-07T00:30:42.361Z,21.25
2022-10-07T00:33:11.792Z,20.15
2022-10-07T00:35:41.026Z,16.63
2022-10-07T00:38:08.793Z,23.90
2022-10-07T00:40:36.779Z,19.23
2022-10-07T00:43:19.395Z,16.02
2022-10-07T00:45:47.428Z,19.35
2022-10-07T00:48:16.686Z,18.20
2022-10-07T00:50:48.277Z,18.45
2022-10-07T00:53:17.659Z,19.90
2022-10-07T00:55:45.620Z,23.13
2022-10-07T00:58:13.796Z,20.40
2022-10-07T01:00:41.639Z,18.42
2022-10-07T01:03:09.427Z,15.40
2022-10-07T01:08:06.196Z,19.67
2022-10-07T01:10:36.920Z,14.77
2022-10-07T01:13:08.726Z,17.02
2022-10-07T01:15:39.504Z,15.38
2022-10-07T01:18:10.294Z,16.20
2022-10-07T01:20:45.354Z,15.32
2022-10-07T01:23:31.202Z,17.17
2022-10-07T01:26:05.185Z,14.98
2022-10-07T01:28:37.968Z,18.00
2022-10-07T01:31:08.304Z,14.23
2022-10-07T01:33:36.860Z,15.27
2022-10-07T01:36:08.218Z,19.73
2022-10-07T01:38:36.757Z,16.90
2022-10-07T01:41:08.127Z,20.23
2022-10-07T01:43:38.510Z,14.88
2022-10-07T01:46:09.021Z,21.95
2022-10-07T01:48:37.288Z,21.33
2022-10-07T01:51:08.051Z,21.02
2022-10-07T01:53:41.088Z,21.75
2022-10-07T01:56:17.376Z,20.02
2022-10-07T01:58:54.461Z,15.30
2022-10-07T02:01:27.071Z,14.60
2022-10-07T02:04:07.194Z,16.35
2022-10-07T02:06:39.451Z,15.75
2022-10-07T02:09:12.335Z,17.13
2022-10-07T02:11:42.401Z,16.73
2022-10-07T02:14:15.170Z,16.35
2022-10-07T02:16:44.875Z,17.08
2022-10-07T02:19:15.523Z,14.52
2022-10-07T02:21:44.524Z,19.52
2022-10-07T02:24:13.913Z,14.30
2022-10-07T02:26:43.124Z,17.85
2022-10-07T02:29:13.747Z,14.15
2022-10-07T02:31:43.370Z,14.25
2022-10-07T02:34:19.713Z,17.80
2022-10-07T02:36:51.227Z,15.02
2022-10-07T02:39:19.221Z,14.88
2022-10-07T02:41:50.493Z,16.48
2022-10-07T02:44:29.315Z,16.65
2022-10-07T02:47:00.246Z,13.70
2022-10-07T02:49:29.553Z,15.85
2022-10-07T02:51:59.366Z,20.65
2022-10-07T02:54:32.013Z,16.27
2022-10-07T02:57:01.198Z,21.77
2022-10-07T02:59:31.569Z,17.58
2022-10-07T03:02:00.989Z,16.45
2022-10-07T03:04:29.293Z,16.05
2022-10-07T03:06:58.815Z,15.32
2022-10-07T03:09:27.028Z,16.63
2022-10-07T03:11:55.303Z,16.23
2022-10-07T03:14:24.829Z,14.73
2022-10-07T03:16:54.475Z,17.38
2022-10-07T03:19:22.557Z,17.27
2022-10-07T03:21:54.057Z,13.82
2022-10-07T03:24:22.037Z,21.55
2022-10-07T03:26:51.195Z,19.15
2022-10-07T03:29:20.050Z,19.85
2022-10-07T03:31:47.953Z,21.83
2022-10-07T03:34:17.354Z,18.98
2022-10-07T03:36:48.305Z,15.25
2022-10-07T03:39:17.184Z,22.02
2022-10-07T03:41:45.576Z,18.38
2022-10-07T03:44:14.690Z,16.83
2022-10-07T03:46:42.908Z,19.40
2022-10-07T03:49:11.134Z,17.58
2022-10-07T03:51:40.442Z,15.52
2022-10-07T03:54:09.992Z,16.85
2022-10-07T03:56:39.707Z,16.90
2022-10-07T03:59:07.503Z,22.50
2022-10-07T04:01:35.793Z,15.35
2022-10-07T04:04:03.943Z,17.10
2022-10-07T04:06:35.908Z,18.23
2022-10-07T04:09:09.784Z,18.92
2022-10-07T04:11:40.608Z,17.38
2022-10-07T04:14:09.605Z,16.00
2022-10-07T04:16:40.767Z,17.02
2022-10-07T04:19:11.767Z,17.50
2022-10-07T04:21:40.115Z,17.10
2022-10-07T04:24:09.523Z,18.98
2022-10-07T04:26:38.422Z,19.08
2022-10-07T04:29:06.748Z,18.48
2022-10-07T04:31:34.827Z,21.50
2022-10-07T04:34:05.733Z,20.98
2022-10-07T04:36:40.846Z,22.10
2022-10-07T04:39:14.547Z,21.77
2022-10-07T04:41:49.472Z,40.10
2022-10-07T04:44:22.252Z,39.58
2022-10-07T04:47:00.163Z,24.33
2022-10-07T04:49:30.824Z,19.15
2022-10-07T04:52:00.694Z,14.98
2022-10-07T04:54:35.752Z,21.83
2022-10-07T04:57:03.774Z,22.17
2022-10-07T04:59:33.731Z,20.45
2022-10-07T05:02:02.900Z,21.83
2022-10-07T05:04:33.777Z,25.65
2022-10-07T05:07:03.139Z,19.63
2022-10-07T05:09:32.443Z,17.88
2022-10-07T05:12:02.608Z,21.92
2022-10-07T05:14:32.857Z,23.20
2022-10-07T05:17:01.251Z,24.02
2022-10-07T05:19:34.023Z,27.15
2022-10-07T05:22:03.075Z,18.77
2022-10-07T05:24:32.181Z,20.02
2022-10-07T05:27:03.424Z,17.45
2022-10-07T05:29:31.396Z,20.02
2022-10-07T05:34:32.527Z,24.60
2022-10-07T05:37:00.793Z,19.00
2022-10-07T05:39:28.867Z,23.60
2022-10-07T05:42:05.077Z,23.38
2022-10-07T05:44:39.616Z,22.30
2022-10-07T05:47:07.872Z,19.92
2022-10-07T05:49:36.664Z,19.83
2022-10-07T05:52:05.821Z,19.75
2022-10-07T05:54:34.598Z,24.67
2022-10-07T05:57:04.986Z,20.65
2022-10-07T05:59:34.304Z,20.50
2022-10-07T06:02:02.478Z,19.75
2022-10-07T06:04:31.378Z,20.80
2022-10-07T06:06:59.446Z,15.77
2022-10-07T06:09:46.473Z,25.20
2022-10-07T06:12:36.862Z,28.25
2022-10-07T06:15:10.225Z,27.65
2022-10-07T06:17:42.737Z,34.08
2022-10-07T06:20:14.264Z,25.77
2022-10-07T06:22:43.114Z,30.20
2022-10-07T06:25:11.343Z,24.70
2022-10-07T06:27:40.786Z,19.15
2022-10-07T06:30:09.483Z,16.63
2022-10-07T06:32:37.423Z,24.48
2022-10-07T06:35:06.188Z,25.98
2022-10-07T06:37:34.278Z,17.27
2022-10-07T06:40:02.718Z,18.65
2022-10-07T06:42:33.688Z,23.55
2022-10-07T06:45:28.316Z,19.35
2022-10-07T06:47:58.977Z,21.23
2022-10-07T06:50:27.197Z,23.42
2022-10-07T06:52:55.157Z,17.25
2022-10-07T06:55:23.214Z,20.48
2022-10-07T06:57:51.051Z,26.67
2022-10-07T07:00:20.756Z,27.33
2022-10-07T07:02:50.967Z,22.08
2022-10-07T07:05:20.225Z,24.83
2022-10-07T07:07:49.215Z,18.65
2022-10-07T07:10:17.735Z,23.25
2022-10-07T07:12:49.256Z,22.23
2022-10-07T07:15:18.193Z,16.25
2022-10-07T07:17:46.389Z,25.65
2022-10-07T07:20:16.113Z,24.17
2022-10-07T07:22:44.241Z,30.33
2022-10-07T07:25:12.494Z,19.73
2022-10-07T07:27:41.224Z,23.25
2022-10-07T07:30:11.083Z,17.85
2022-10-07T07:32:39.655Z,18.80
2022-10-07T07:35:09.198Z,18.40
2022-10-07T07:37:38.676Z,21.50
2022-10-07T07:40:06.877Z,30.98
2022-10-07T07:42:34.950Z,25.50
2022-10-07T07:45:03.098Z,22.70
2022-10-07T07:47:32.689Z,28.77
2022-10-07T07:50:01.122Z,28.40
2022-10-07T07:52:32.589Z,19.42
2022-10-07T07:55:03.561Z,16.92
2022-10-07T07:57:33.137Z,26.65
2022-10-07T08:00:05.346Z,17.60
2022-10-07T08:02:41.879Z,19.80
2022-10-07T08:05:13.524Z,15.65
2022-10-07T08:07:41.814Z,13.40
2022-10-07T08:10:12.828Z,19.50
2022-10-07T08:12:41.556Z,19.33
2022-10-07T08:15:10.900Z,16.02
2022-10-07T08:17:39.575Z,14.93
2022-10-07T08:20:10.826Z,13.90
2022-10-07T08:22:39.764Z,13.38
2022-10-07T08:25:08.161Z,20.20
2022-10-07T08:27:37.767Z,17.05
2022-10-07T08:30:07.248Z,14.95
2022-10-07T08:32:35.247Z,14.40
2022-10-07T08:35:02.990Z,14.10
2022-10-07T08:37:31.682Z,17.02
2022-10-07T08:39:59.588Z,20.88
2022-10-07T08:42:31.747Z,14.60
2022-10-07T08:45:01.250Z,13.90
2022-10-07T08:47:31.543Z,20.40
2022-10-07T08:50:04.543Z,15.90
2022-10-07T08:52:36.652Z,23.08
2022-10-07T08:55:05.427Z,15.38
2022-10-07T08:57:45.925Z,20.15
2022-10-07T09:00:18.168Z,16.60
2022-10-07T09:03:07.520Z,15.15
2022-10-07T09:05:36.634Z,15.18
2022-10-07T09:08:06.141Z,12.68
2022-10-07T09:10:37.323Z,15.18
2022-10-07T09:13:08.130Z,17.20
2022-10-07T09:15:41.418Z,20.92
2022-10-07T09:18:14.091Z,17.27
2022-10-07T09:20:44.798Z,15.13
2022-10-07T09:23:15.499Z,10.10
2022-10-07T09:25:44.556Z,16.60
2022-10-07T09:28:17.501Z,9.77
2022-10-07T09:30:46.774Z,10.93
2022-10-07T09:33:16.253Z,11.05
2022-10-07T09:35:47.398Z,8.88
2022-10-07T09:38:15.464Z,13.20
2022-10-07T09:40:59.243Z,9.38
2022-10-07T09:43:27.826Z,12.73
2022-10-07T09:45:58.240Z,11.63
2022-10-07T09:48:28.024Z,7.82
2022-10-07T09:51:10.674Z,12.80
2022-10-07T09:53:48.697Z,10.98
2022-10-07T09:58:44.312Z,9.32
2022-10-07T10:01:14.307Z,10.73
2022-10-07T10:03:42.354Z,9.52
2022-10-07T10:06:10.639Z,8.25
2022-10-07T10:08:39.863Z,6.85
2022-10-07T10:11:08.750Z,6.13
2022-10-07T10:13:37.883Z,4.63
2022-10-07T10:16:07.221Z,5.90
2022-10-07T10:18:40.605Z,8.80
2022-10-07T10:21:20.894Z,6.18
2022-10-07T10:23:49.973Z,8.70
2022-10-07T10:26:33.365Z,9.13
2022-10-07T10:29:12.778Z,5.82
2022-10-07T10:31:46.791Z,6.05
2022-10-07T10:34:24.481Z,4.97
2022-10-07T10:36:54.730Z,5.20
2022-10-07T10:39:28.349Z,6.60
2022-10-07T10:41:58.126Z,6.90
2022-10-07T10:44:33.605Z,8.10
2022-10-07T10:47:05.114Z,8.75
2022-10-07T10:49:36.989Z,4.30
2022-10-07T10:52:13.605Z,12.98
2022-10-07T10:54:46.453Z,6.07
2022-10-07T10:57:19.312Z,6.20
2022-10-07T10:59:55.730Z,7.38
2022-10-07T11:02:38.500Z,9.02
2022-10-07T11:05:15.021Z,9.60
2022-10-07T11:07:45.413Z,14.00
2022-10-07T11:10:19.033Z,9.85
2022-10-07T11:12:48.656Z,6.65
2022-10-07T11:15:19.717Z,6.93
2022-10-07T11:17:50.684Z,17.60
2022-10-07T11:20:21.671Z,17.35
2022-10-07T11:22:52.687Z,12.40
2022-10-07T11:25:25.697Z,10.68
2022-10-07T11:27:55.592Z,7.97
2022-10-07T11:30:24.378Z,4.75
2022-10-07T11:32:56.105Z,10.02
2022-10-07T11:35:29.336Z,12.18
2022-10-07T11:38:00.725Z,4.88
2022-10-07T11:40:30.405Z,4.88
2022-10-07T11:43:00.445Z,9.15
2022-10-07T11:45:31.782Z,6.07
2022-10-07T11:48:01.100Z,5.82
2022-10-07T11:50:32.495Z,12.35
2022-10-07T11:53:03.470Z,5.43
2022-10-07T11:55:34.707Z,9.23
2022-10-07T11:58:04.086Z,5.95
2022-10-07T12:00:33.233Z,6.63
2022-10-07T12:03:11.987Z,14.55
2022-10-07T12:05:59.071Z,14.93
2022-10-07T12:08:34.417Z,10.38
2022-10-07T12:11:22.712Z,7.45
2022-10-07T12:13:51.669Z,7.65
2022-10-07T12:16:38.171Z,7.75
2022-10-07T12:19:23.817Z,7.43
2022-10-07T12:22:10.550Z,11.02
2022-10-07T12:24:45.969Z,7.28
2022-10-07T12:27:17.644Z,8.93
2022-10-07T12:29:58.932Z,7.50
2022-10-07T12:32:45.861Z,7.90
2022-10-07T12:35:51.465Z,10.10
2022-10-07T12:38:26.449Z,7.20
2022-10-07T12:41:27.440Z,14.48
2022-10-07T12:44:00.116Z,13.07
2022-10-07T12:46:30.555Z,13.07
2022-10-07T12:49:00.820Z,13.10
2022-10-07T12:51:30.611Z,7.80
2022-10-07T12:53:59.996Z,8.60
2022-10-07T12:56:29.207Z,23.38
2022-10-07T12:59:24.663Z,19.90
2022-10-07T13:02:08.410Z,6.65
2022-10-07T13:04:51.550Z,4.63
2022-10-07T13:07:34.008Z,6.90
2022-10-07T13:10:18.576Z,8.48
2022-10-07T13:12:51.607Z,5.28
2022-10-07T13:15:31.496Z,4.35
2022-10-07T13:18:07.290Z,9.45
2022-10-07T13:20:40.355Z,8.48
2022-10-07T13:23:16.004Z,6.85
2022-10-07T13:25:45.078Z,8.57
2022-10-07T13:28:15.041Z,18.90
2022-10-07T13:30:45.445Z,13.27
2022-10-07T13:33:20.577Z,6.72
2022-10-07T13:35:48.417Z,10.32
2022-10-07T13:38:28.848Z,13.30
2022-10-07T13:41:00.181Z,8.65
2022-10-07T13:43:29.433Z,15.77
2022-10-07T13:45:59.547Z,6.03
2022-10-07T13:48:28.918Z,23.52
